| |
Missouri Department of Transportation

Social Media Facebook Twitter Flickr Instagram YouTube RSS

Current METAR Information for All MoDOT Locations 
AWOS Home - General Info for all Airports
Current AWOS for all Airports - Current METAR for all Airports
Glossary - Disclaimer - Other Links


Automated Weather Observation System
Date: 02-19-2018
 
Location Current METAR Record
HANNIBAL  No current data available
HARRISONVILLE  No current data available
LEBANON  No current data available
MALDEN  No current data available
MARSHALL METAR KMHL 191209Z AUTO 19016G23KT 10SM BKN021 17/15 A2968 RMK AO2 LTG DSNT E
MARYVILLE  No current data available
MEXICO  No current data available
MOBERLY  No current data available
NEVADA METAR KNVD 191159Z AUTO 19024G37KT 10SM VCTS BKN021 BKN029 BKN038 17/14 A2973 RMK AO2 LTG DSNT E AND SE
PIEDMONT  No current data available
SIKESTON  No current data available
SULLIVAN  No current data available
WARSAW  No current data available
About Us
How Do I...
Contact Us
Missouri Department of Transportation
Central Office
105 W. Capitol Avenue
Jefferson City, MO 65102
1-888-ASK-MODOT (275-6636)
1-866-831-6277 (Motor Carrier Services)
Driver's License Offices
horz_bar
| | |
Missouri State Government
© 2013 Missouri Department of Transportation. All Rights Reserved.   Privacy Policy.
 
 
 
 
RSS FeedYoutubeBlogFlickrTwitter Facebook